sensor_id;sensor_type;location;lat;lon;timestamp;pressure;altitude;pressure_sealevel;temperature;humidity
53506;BME280;39388;50.936;6.848;2023-01-09T00:00:45;98938.84;;;8.91;82.60
53506;BME280;39388;50.936;6.848;2023-01-09T00:03:15;98940.69;;;8.87;82.33
53506;BME280;39388;50.936;6.848;2023-01-09T00:05:46;98940.72;;;8.86;82.61
53506;BME280;39388;50.936;6.848;2023-01-09T00:08:16;98942.44;;;8.85;82.43
53506;BME280;39388;50.936;6.848;2023-01-09T00:10:48;98950.16;;;8.85;82.17
53506;BME280;39388;50.936;6.848;2023-01-09T00:13:19;98945.19;;;8.79;82.25
53506;BME280;39388;50.936;6.848;2023-01-09T00:15:50;98944.44;;;8.74;82.45
53506;BME280;39388;50.936;6.848;2023-01-09T00:18:20;98931.78;;;8.68;82.37
53506;BME280;39388;50.936;6.848;2023-01-09T00:20:51;98942.81;;;8.71;82.69
53506;BME280;39388;50.936;6.848;2023-01-09T00:23:21;98953.09;;;8.71;82.58
53506;BME280;39388;50.936;6.848;2023-01-09T00:26:01;98937.81;;;8.65;82.58
53506;BME280;39388;50.936;6.848;2023-01-09T00:28:32;98951.41;;;8.70;82.64
53506;BME280;39388;50.936;6.848;2023-01-09T00:31:04;98950.53;;;8.70;82.62
53506;BME280;39388;50.936;6.848;2023-01-09T00:33:39;98947.16;;;8.69;82.58
53506;BME280;39388;50.936;6.848;2023-01-09T00:36:11;98949.75;;;8.68;82.70
53506;BME280;39388;50.936;6.848;2023-01-09T00:38:41;98944.66;;;8.66;82.62
53506;BME280;39388;50.936;6.848;2023-01-09T00:41:16;98936.19;;;8.63;82.90
53506;BME280;39388;50.936;6.848;2023-01-09T00:43:54;98948.19;;;8.62;82.89
53506;BME280;39388;50.936;6.848;2023-01-09T00:46:30;98934.56;;;8.58;82.42
53506;BME280;39388;50.936;6.848;2023-01-09T00:49:04;98932.03;;;8.57;82.36
53506;BME280;39388;50.936;6.848;2023-01-09T00:51:38;98945.81;;;8.54;82.32
53506;BME280;39388;50.936;6.848;2023-01-09T00:54:11;98956.97;;;8.53;82.44
53506;BME280;39388;50.936;6.848;2023-01-09T00:56:43;98934.06;;;8.46;82.25
53506;BME280;39388;50.936;6.848;2023-01-09T00:59:13;98945.91;;;8.50;82.25
53506;BME280;39388;50.936;6.848;2023-01-09T01:01:44;98948.53;;;8.48;82.24
53506;BME280;39388;50.936;6.848;2023-01-09T01:04:14;98957.88;;;8.51;82.31
53506;BME280;39388;50.936;6.848;2023-01-09T01:07:03;98963.13;;;8.46;81.97
53506;BME280;39388;50.936;6.848;2023-01-09T01:09:52;98974.25;;;8.47;82.06
53506;BME280;39388;50.936;6.848;2023-01-09T01:12:22;98970.03;;;8.44;82.00
53506;BME280;39388;50.936;6.848;2023-01-09T01:14:53;98972.69;;;8.41;82.10
53506;BME280;39388;50.936;6.848;2023-01-09T01:17:23;98971.00;;;8.40;82.22
53506;BME280;39388;50.936;6.848;2023-01-09T01:19:54;98963.38;;;8.37;82.15
53506;BME280;39388;50.936;6.848;2023-01-09T01:22:24;98958.34;;;8.32;82.37
53506;BME280;39388;50.936;6.848;2023-01-09T01:24:54;98976.22;;;8.37;82.20
53506;BME280;39388;50.936;6.848;2023-01-09T01:27:26;98969.50;;;8.30;82.49
53506;BME280;39388;50.936;6.848;2023-01-09T01:29:57;98985.72;;;8.32;82.49
53506;BME280;39388;50.936;6.848;2023-01-09T01:32:27;98971.38;;;8.24;82.49
53506;BME280;39388;50.936;6.848;2023-01-09T01:34:57;98982.47;;;8.25;82.38
53506;BME280;39388;50.936;6.848;2023-01-09T01:37:28;98980.78;;;8.24;83.00
53506;BME280;39388;50.936;6.848;2023-01-09T01:39:58;98983.47;;;8.19;82.89
53506;BME280;39388;50.936;6.848;2023-01-09T01:42:28;98983.59;;;8.13;82.85
53506;BME280;39388;50.936;6.848;2023-01-09T01:45:12;98990.34;;;8.17;83.07
53506;BME280;39388;50.936;6.848;2023-01-09T01:53:08;98997.22;;;8.15;83.17
53506;BME280;39388;50.936;6.848;2023-01-09T01:55:44;98993.13;;;8.08;83.37
53506;BME280;39388;50.936;6.848;2023-01-09T01:58:16;98997.28;;;8.13;83.34
53506;BME280;39388;50.936;6.848;2023-01-09T02:00:47;99006.69;;;8.13;83.43
53506;BME280;39388;50.936;6.848;2023-01-09T02:03:21;99009.38;;;8.08;83.45
53506;BME280;39388;50.936;6.848;2023-01-09T02:05:52;99006.13;;;8.00;83.52
53506;BME280;39388;50.936;6.848;2023-01-09T02:08:23;99013.78;;;8.02;83.43
53506;BME280;39388;50.936;6.848;2023-01-09T02:10:53;99008.81;;;7.94;83.75
53506;BME280;39388;50.936;6.848;2023-01-09T02:13:24;99007.94;;;7.95;83.67
53506;BME280;39388;50.936;6.848;2023-01-09T02:16:17;99009.69;;;7.94;83.87
53506;BME280;39388;50.936;6.848;2023-01-09T02:31:03;98995.19;;;7.92;84.43
53506;BME280;39388;50.936;6.848;2023-01-09T02:33:45;99009.63;;;7.96;84.21
53506;BME280;39388;50.936;6.848;2023-01-09T02:39:03;99018.84;;;8.05;84.00
53506;BME280;39388;50.936;6.848;2023-01-09T02:41:43;99019.63;;;8.08;84.14
53506;BME280;39388;50.936;6.848;2023-01-09T02:44:22;99024.72;;;8.11;83.82
53506;BME280;39388;50.936;6.848;2023-01-09T02:49:32;99026.28;;;8.17;83.65
53506;BME280;39388;50.936;6.848;2023-01-09T03:06:19;99027.75;;;8.29;83.09
53506;BME280;39388;50.936;6.848;2023-01-09T03:08:54;99032.78;;;8.34;83.18
53506;BME280;39388;50.936;6.848;2023-01-09T03:11:28;99028.56;;;8.30;82.97
53506;BME280;39388;50.936;6.848;2023-01-09T03:14:11;99038.94;;;8.25;82.79
53506;BME280;39388;50.936;6.848;2023-01-09T03:16:46;99033.97;;;8.19;82.69
53506;BME280;39388;50.936;6.848;2023-01-09T03:19:20;99041.75;;;8.16;82.58
53506;BME280;39388;50.936;6.848;2023-01-09T03:21:52;99044.59;;;8.02;83.04
53506;BME280;39388;50.936;6.848;2023-01-09T03:24:24;99061.75;;;8.00;82.98
53506;BME280;39388;50.936;6.848;2023-01-09T03:26:54;99037.25;;;7.85;82.94
53506;BME280;39388;50.936;6.848;2023-01-09T03:29:25;99051.78;;;7.86;83.21
53506;BME280;39388;50.936;6.848;2023-01-09T03:31:55;99063.88;;;7.79;83.29
53506;BME280;39388;50.936;6.848;2023-01-09T03:34:26;99062.19;;;7.78;83.14
53506;BME280;39388;50.936;6.848;2023-01-09T03:36:56;99060.56;;;7.74;83.30
53506;BME280;39388;50.936;6.848;2023-01-09T03:39:27;99056.44;;;7.65;83.41
53506;BME280;39388;50.936;6.848;2023-01-09T03:41:57;99078.66;;;7.66;83.20
53506;BME280;39388;50.936;6.848;2023-01-09T03:44:28;99074.44;;;7.63;82.99
53506;BME280;39388;50.936;6.848;2023-01-09T03:46:58;99081.28;;;7.63;82.51
53506;BME280;39388;50.936;6.848;2023-01-09T03:49:29;99085.69;;;7.58;83.02
53506;BME280;39388;50.936;6.848;2023-01-09T03:51:59;99084.03;;;7.54;82.98
53506;BME280;39388;50.936;6.848;2023-01-09T03:54:30;99086.69;;;7.49;82.95
53506;BME280;39388;50.936;6.848;2023-01-09T03:57:00;99085.03;;;7.45;82.78
53506;BME280;39388;50.936;6.848;2023-01-09T03:59:30;99092.00;;;7.40;82.58
53506;BME280;39388;50.936;6.848;2023-01-09T04:02:01;99083.59;;;7.30;83.04
53506;BME280;39388;50.936;6.848;2023-01-09T04:04:31;99074.38;;;7.18;82.95
53506;BME280;39388;50.936;6.848;2023-01-09T04:07:02;99092.16;;;7.27;82.93
53506;BME280;39388;50.936;6.848;2023-01-09T04:09:32;99084.59;;;7.21;82.91
53506;BME280;39388;50.936;6.848;2023-01-09T04:12:03;99094.84;;;7.21;83.04
53506;BME280;39388;50.936;6.848;2023-01-09T04:14:33;99088.94;;;7.17;83.13
53506;BME280;39388;50.936;6.848;2023-01-09T04:17:04;99074.56;;;7.07;83.11
53506;BME280;39388;50.936;6.848;2023-01-09T04:19:34;99097.59;;;7.10;82.79
53506;BME280;39388;50.936;6.848;2023-01-09T04:22:04;99101.00;;;7.09;83.42
53506;BME280;39388;50.936;6.848;2023-01-09T04:24:35;99101.09;;;7.04;83.26
53506;BME280;39388;50.936;6.848;2023-01-09T04:27:05;99101.22;;;6.97;83.06
53506;BME280;39388;50.936;6.848;2023-01-09T04:29:35;99102.97;;;6.95;82.95
53506;BME280;39388;50.936;6.848;2023-01-09T04:32:06;99113.31;;;6.88;83.45
53506;BME280;39388;50.936;6.848;2023-01-09T04:34:36;99121.88;;;6.87;83.01
53506;BME280;39388;50.936;6.848;2023-01-09T04:37:06;99121.06;;;6.84;83.10
53506;BME280;39388;50.936;6.848;2023-01-09T04:39:37;99127.09;;;6.81;83.60
53506;BME280;39388;50.936;6.848;2023-01-09T04:42:08;99132.97;;;6.88;83.94
53506;BME280;39388;50.936;6.848;2023-01-09T04:44:38;99132.00;;;6.94;83.48
53506;BME280;39388;50.936;6.848;2023-01-09T04:47:08;99124.25;;;7.00;83.43
53506;BME280;39388;50.936;6.848;2023-01-09T04:49:39;99140.31;;;7.10;83.30
53506;BME280;39388;50.936;6.848;2023-01-09T04:52:09;99135.06;;;7.17;82.94
53506;BME280;39388;50.936;6.848;2023-01-09T04:54:40;99140.09;;;7.24;82.49
53506;BME280;39388;50.936;6.848;2023-01-09T04:57:10;99132.38;;;7.25;82.36
53506;BME280;39388;50.936;6.848;2023-01-09T04:59:41;99126.44;;;7.23;82.10
53506;BME280;39388;50.936;6.848;2023-01-09T05:02:11;99144.06;;;7.42;81.96
53506;BME280;39388;50.936;6.848;2023-01-09T05:04:41;99138.06;;;7.44;82.48
53506;BME280;39388;50.936;6.848;2023-01-09T05:07:12;99140.59;;;7.47;82.44
53506;BME280;39388;50.936;6.848;2023-01-09T05:09:42;99139.69;;;7.50;81.75
53506;BME280;39388;50.936;6.848;2023-01-09T05:12:13;99145.63;;;7.52;81.74
53506;BME280;39388;50.936;6.848;2023-01-09T05:14:44;99140.41;;;7.57;81.74
53506;BME280;39388;50.936;6.848;2023-01-09T05:17:14;99140.41;;;7.57;81.85
53506;BME280;39388;50.936;6.848;2023-01-09T05:19:44;99142.88;;;7.61;81.53
53506;BME280;39388;50.936;6.848;2023-01-09T05:22:15;99151.41;;;7.63;81.06
53506;BME280;39388;50.936;6.848;2023-01-09T05:24:45;99147.94;;;7.66;81.25
53506;BME280;39388;50.936;6.848;2023-01-09T05:27:16;99136.00;;;7.63;80.61
53506;BME280;39388;50.936;6.848;2023-01-09T05:29:46;99141.09;;;7.66;81.14
53506;BME280;39388;50.936;6.848;2023-01-09T05:32:16;99151.28;;;7.71;80.74
53506;BME280;39388;50.936;6.848;2023-01-09T05:34:47;99154.63;;;7.75;80.25
53506;BME280;39388;50.936;6.848;2023-01-09T05:37:17;99149.47;;;7.76;80.30
53506;BME280;39388;50.936;6.848;2023-01-09T05:39:47;99140.91;;;7.76;79.84
53506;BME280;39388;50.936;6.848;2023-01-09T05:42:18;99145.09;;;7.81;79.82
53506;BME280;39388;50.936;6.848;2023-01-09T05:44:48;99156.03;;;7.91;79.55
53506;BME280;39388;50.936;6.848;2023-01-09T05:47:18;99154.28;;;7.93;79.36
53506;BME280;39388;50.936;6.848;2023-01-09T05:49:49;99152.53;;;7.95;79.08
53506;BME280;39388;50.936;6.848;2023-01-09T05:52:19;99155.06;;;7.97;78.89
53506;BME280;39388;50.936;6.848;2023-01-09T05:54:50;99161.84;;;8.00;79.16
53506;BME280;39388;50.936;6.848;2023-01-09T05:57:20;99161.84;;;8.00;78.86
53506;BME280;39388;50.936;6.848;2023-01-09T05:59:51;99164.41;;;8.00;79.12
53506;BME280;39388;50.936;6.848;2023-01-09T06:02:21;99160.09;;;8.02;79.23
53506;BME280;39388;50.936;6.848;2023-01-09T06:04:51;99160.97;;;8.02;79.16
53506;BME280;39388;50.936;6.848;2023-01-09T06:07:22;99147.31;;;7.98;78.58
53506;BME280;39388;50.936;6.848;2023-01-09T06:09:52;99165.94;;;8.08;78.86
53506;BME280;39388;50.936;6.848;2023-01-09T06:12:22;99165.13;;;8.08;78.57
53506;BME280;39388;50.936;6.848;2023-01-09T06:14:53;99163.47;;;8.04;78.71
53506;BME280;39388;50.936;6.848;2023-01-09T06:17:23;99169.41;;;8.07;78.68
53506;BME280;39388;50.936;6.848;2023-01-09T06:19:53;99165.13;;;8.06;78.54
53506;BME280;39388;50.936;6.848;2023-01-09T06:22:24;99165.91;;;8.11;78.61
53506;BME280;39388;50.936;6.848;2023-01-09T06:24:54;99163.38;;;8.10;78.48
53506;BME280;39388;50.936;6.848;2023-01-09T06:27:24;99174.38;;;8.15;78.40
53506;BME280;39388;50.936;6.848;2023-01-09T06:29:55;99164.09;;;8.15;78.33
53506;BME280;39388;50.936;6.848;2023-01-09T06:32:25;99163.38;;;8.10;78.51
53506;BME280;39388;50.936;6.848;2023-01-09T06:34:55;99170.94;;;8.16;78.50
53506;BME280;39388;50.936;6.848;2023-01-09T06:37:26;99170.94;;;8.18;78.58
53506;BME280;39388;50.936;6.848;2023-01-09T06:39:56;99173.50;;;8.16;78.93
53506;BME280;39388;50.936;6.848;2023-01-09T06:42:27;99181.97;;;8.20;78.79
53506;BME280;39388;50.936;6.848;2023-01-09T06:44:57;99184.56;;;8.20;78.80
53506;BME280;39388;50.936;6.848;2023-01-09T06:47:27;99183.72;;;8.19;78.69
53506;BME280;39388;50.936;6.848;2023-01-09T06:49:58;99185.47;;;8.17;78.87
53506;BME280;39388;50.936;6.848;2023-01-09T06:52:28;99182.03;;;8.18;78.87
53506;BME280;39388;50.936;6.848;2023-01-09T06:54:58;99170.94;;;8.16;78.84
53506;BME280;39388;50.936;6.848;2023-01-09T06:57:29;99182.78;;;8.23;79.01
53506;BME280;39388;50.936;6.848;2023-01-09T06:59:59;99172.53;;;8.22;78.81
53506;BME280;39388;50.936;6.848;2023-01-09T07:02:30;99179.34;;;8.24;78.87
53506;BME280;39388;50.936;6.848;2023-01-09T07:05:00;99169.09;;;8.23;79.04
53506;BME280;39388;50.936;6.848;2023-01-09T07:07:31;99160.56;;;8.21;79.01
53506;BME280;39388;50.936;6.848;2023-01-09T07:10:02;99164.78;;;8.25;79.03
53506;BME280;39388;50.936;6.848;2023-01-09T07:12:32;99169.84;;;8.28;79.16
53506;BME280;39388;50.936;6.848;2023-01-09T07:15:03;99168.97;;;8.29;79.22
53506;BME280;39388;50.936;6.848;2023-01-09T07:17:33;99171.50;;;8.32;79.21
53506;BME280;39388;50.936;6.848;2023-01-09T07:20:04;99133.28;;;8.17;78.79
53506;BME280;39388;50.936;6.848;2023-01-09T07:22:35;99175.72;;;8.35;79.19
53506;BME280;39388;50.936;6.848;2023-01-09T07:25:05;99172.31;;;8.33;79.17
53506;BME280;39388;50.936;6.848;2023-01-09T07:27:36;99171.41;;;8.35;79.09
53506;BME280;39388;50.936;6.848;2023-01-09T07:30:07;99165.38;;;8.38;79.08
53506;BME280;39388;50.936;6.848;2023-01-09T07:32:37;99171.34;;;8.38;79.17
53506;BME280;39388;50.936;6.848;2023-01-09T07:35:10;99160.34;;;8.33;79.40
53506;BME280;39388;50.936;6.848;2023-01-09T07:37:40;99151.81;;;8.31;79.06
53506;BME280;39388;50.936;6.848;2023-01-09T07:40:11;99167.94;;;8.38;79.24
53506;BME280;39388;50.936;6.848;2023-01-09T07:42:41;99161.22;;;8.32;79.07
53506;BME280;39388;50.936;6.848;2023-01-09T07:45:12;99176.38;;;8.45;79.33
53506;BME280;39388;50.936;6.848;2023-01-09T07:47:42;99177.19;;;8.47;78.69
53506;BME280;39388;50.936;6.848;2023-01-09T07:50:12;99184.03;;;8.46;79.15
53506;BME280;39388;50.936;6.848;2023-01-09T07:52:44;99199.38;;;8.49;79.39
53506;BME280;39388;50.936;6.848;2023-01-09T07:55:15;99186.81;;;8.37;78.97
53506;BME280;39388;50.936;6.848;2023-01-09T07:57:49;99207.03;;;8.51;79.01
53506;BME280;39388;50.936;6.848;2023-01-09T08:00:20;99205.41;;;8.48;78.84
53506;BME280;39388;50.936;6.848;2023-01-09T08:02:51;99225.84;;;8.54;78.77
53506;BME280;39388;50.936;6.848;2023-01-09T08:05:22;99235.16;;;8.58;78.65
53506;BME280;39388;50.936;6.848;2023-01-09T08:07:52;99232.59;;;8.58;78.36
53506;BME280;39388;50.936;6.848;2023-01-09T08:10:23;99226.66;;;8.55;78.49
53506;BME280;39388;50.936;6.848;2023-01-09T08:12:53;99228.38;;;8.56;78.83
53506;BME280;39388;50.936;6.848;2023-01-09T08:15:24;99228.38;;;8.56;78.61
53506;BME280;39388;50.936;6.848;2023-01-09T08:17:54;99212.94;;;8.56;78.98
53506;BME280;39388;50.936;6.848;2023-01-09T08:20:25;99219.72;;;8.58;78.64
53506;BME280;39388;50.936;6.848;2023-01-09T08:22:56;99211.16;;;8.59;78.51
53506;BME280;39388;50.936;6.848;2023-01-09T08:25:26;99229.06;;;8.63;78.49
53506;BME280;39388;50.936;6.848;2023-01-09T08:27:57;99233.38;;;8.62;78.38
53506;BME280;39388;50.936;6.848;2023-01-09T08:30:27;99214.63;;;8.57;78.50
53506;BME280;39388;50.936;6.848;2023-01-09T08:32:58;99229.03;;;8.64;78.36
53506;BME280;39388;50.936;6.848;2023-01-09T08:35:28;99233.25;;;8.68;78.39
53506;BME280;39388;50.936;6.848;2023-01-09T08:37:59;99226.47;;;8.64;77.99
53506;BME280;39388;50.936;6.848;2023-01-09T08:40:30;99221.31;;;8.66;78.06
53506;BME280;39388;50.936;6.848;2023-01-09T08:43:00;99229.84;;;8.66;78.36
53506;BME280;39388;50.936;6.848;2023-01-09T08:45:59;99226.47;;;8.64;78.10
53506;BME280;39388;50.936;6.848;2023-01-09T08:48:48;99228.16;;;8.65;78.01
53506;BME280;39388;50.936;6.848;2023-01-09T08:51:19;99240.00;;;8.72;77.98
53506;BME280;39388;50.936;6.848;2023-01-09T08:53:49;99248.56;;;8.73;78.22
53506;BME280;39388;50.936;6.848;2023-01-09T08:56:19;99256.31;;;8.70;78.01
53506;BME280;39388;50.936;6.848;2023-01-09T08:58:50;99266.69;;;8.67;78.56
53506;BME280;39388;50.936;6.848;2023-01-09T09:01:20;99263.31;;;8.63;79.02
53506;BME280;39388;50.936;6.848;2023-01-09T09:03:50;99273.56;;;8.65;79.30
53506;BME280;39388;50.936;6.848;2023-01-09T09:06:21;99267.69;;;8.59;79.39
53506;BME280;39388;50.936;6.848;2023-01-09T09:08:51;99275.38;;;8.59;79.57
53506;BME280;39388;50.936;6.848;2023-01-09T09:11:21;99267.69;;;8.59;79.99
53506;BME280;39388;50.936;6.848;2023-01-09T09:13:52;99269.41;;;8.57;80.38
53506;BME280;39388;50.936;6.848;2023-01-09T09:16:25;99272.81;;;8.59;80.34
53506;BME280;39388;50.936;6.848;2023-01-09T09:18:56;99266.03;;;8.57;80.53
53506;BME280;39388;50.936;6.848;2023-01-09T09:21:26;99278.72;;;8.63;80.75
53506;BME280;39388;50.936;6.848;2023-01-09T09:23:56;99277.03;;;8.64;80.67
53506;BME280;39388;50.936;6.848;2023-01-09T09:26:28;99279.56;;;8.65;80.83
53506;BME280;39388;50.936;6.848;2023-01-09T09:28:58;99285.50;;;8.69;80.69
53506;BME280;39388;50.936;6.848;2023-01-09T09:31:29;99282.09;;;8.67;80.54
53506;BME280;39388;50.936;6.848;2023-01-09T09:33:59;99284.69;;;8.65;80.49
53506;BME280;39388;50.936;6.848;2023-01-09T09:36:30;99294.00;;;8.71;80.42
53506;BME280;39388;50.936;6.848;2023-01-09T09:39:00;99300.78;;;8.75;80.55
53506;BME280;39388;50.936;6.848;2023-01-09T09:45:01;99302.34;;;8.82;80.91
53506;BME280;39388;50.936;6.848;2023-01-09T09:47:52;99310.84;;;8.84;80.66
53506;BME280;39388;50.936;6.848;2023-01-09T09:53:52;99315.06;;;8.88;80.80
53506;BME280;39388;50.936;6.848;2023-01-09T09:56:04;99309.09;;;8.88;80.79
53506;BME280;39388;50.936;6.848;2023-01-09T09:58:35;99320.09;;;8.95;80.53
53506;BME280;39388;50.936;6.848;2023-01-09T10:01:08;99318.34;;;8.97;80.47
53506;BME280;39388;50.936;6.848;2023-01-09T10:03:49;99316.66;;;8.96;80.12
53506;BME280;39388;50.936;6.848;2023-01-09T10:06:34;99334.41;;;9.07;80.42
53506;BME280;39388;50.936;6.848;2023-01-09T10:14:43;99339.13;;;9.27;79.85
53506;BME280;39388;50.936;6.848;2023-01-09T10:39:44;99324.03;;;9.49;76.51
53506;BME280;39388;50.936;6.848;2023-01-09T10:45:12;99336.59;;;9.63;76.48
53506;BME280;39388;50.936;6.848;2023-01-09T10:47:45;99340.81;;;9.67;76.13
53506;BME280;39388;50.936;6.848;2023-01-09T10:50:25;99350.13;;;9.71;76.07
53506;BME280;39388;50.936;6.848;2023-01-09T10:52:56;99339.81;;;9.73;75.88
53506;BME280;39388;50.936;6.848;2023-01-09T10:55:45;99347.44;;;9.77;75.55
53506;BME280;39388;50.936;6.848;2023-01-09T10:58:20;99349.06;;;9.81;75.63
53506;BME280;39388;50.936;6.848;2023-01-09T11:00:51;99350.66;;;9.86;75.39
53506;BME280;39388;50.936;6.848;2023-01-09T11:03:22;99348.91;;;9.88;75.18
53506;BME280;39388;50.936;6.848;2023-01-09T11:05:55;99339.44;;;9.90;75.01
53506;BME280;39388;50.936;6.848;2023-01-09T11:08:34;99337.72;;;9.90;74.65
53506;BME280;39388;50.936;6.848;2023-01-09T11:11:09;99343.59;;;9.95;74.84
53506;BME280;39388;50.936;6.848;2023-01-09T11:13:39;99345.41;;;9.92;74.54
53506;BME280;39388;50.936;6.848;2023-01-09T11:16:19;99337.00;;;9.84;74.45
53506;BME280;39388;50.936;6.848;2023-01-09T11:18:54;99337.19;;;9.74;74.88
53506;BME280;39388;50.936;6.848;2023-01-09T11:24:22;99350.13;;;9.73;75.10
53506;BME280;39388;50.936;6.848;2023-01-09T11:27:16;99354.34;;;9.75;74.95
53506;BME280;39388;50.936;6.848;2023-01-09T11:32:45;99363.63;;;9.81;75.21
53506;BME280;39388;50.936;6.848;2023-01-09T11:35:20;99364.50;;;9.81;74.80
53506;BME280;39388;50.936;6.848;2023-01-09T11:38:00;99366.09;;;9.87;74.91
53506;BME280;39388;50.936;6.848;2023-01-09T11:40:43;99373.03;;;9.84;75.20
53506;BME280;39388;50.936;6.848;2023-01-09T11:43:33;99381.50;;;9.89;74.40
53506;BME280;39388;50.936;6.848;2023-01-09T11:46:07;99378.91;;;9.90;74.85
53506;BME280;39388;50.936;6.848;2023-01-09T11:48:38;99386.53;;;9.93;74.61
53506;BME280;39388;50.936;6.848;2023-01-09T11:51:19;99384.97;;;9.88;74.87
53506;BME280;39388;50.936;6.848;2023-01-09T11:56:45;99375.69;;;9.80;74.90
53506;BME280;39388;50.936;6.848;2023-01-09T11:59:21;99383.28;;;9.85;74.78
53506;BME280;39388;50.936;6.848;2023-01-09T12:05:05;99386.66;;;9.90;74.34
53506;BME280;39388;50.936;6.848;2023-01-09T12:07:41;99384.03;;;9.92;74.40
53506;BME280;39388;50.936;6.848;2023-01-09T12:16:29;99401.88;;;10.00;73.67
53506;BME280;39388;50.936;6.848;2023-01-09T12:22:23;99407.72;;;10.06;73.30
53506;BME280;39388;50.936;6.848;2023-01-09T12:25:07;99413.56;;;10.13;73.38
53506;BME280;39388;50.936;6.848;2023-01-09T12:28:09;99419.47;;;10.17;73.20
53506;BME280;39388;50.936;6.848;2023-01-09T12:33:28;99422.06;;;10.17;72.52
53506;BME280;39388;50.936;6.848;2023-01-09T12:51:12;99425.06;;;10.34;72.03
53506;BME280;39388;50.936;6.848;2023-01-09T12:54:02;99426.56;;;10.43;71.84
53506;BME280;39388;50.936;6.848;2023-01-09T12:56:42;99416.22;;;10.45;71.68
53506;BME280;39388;50.936;6.848;2023-01-09T12:59:25;99424.75;;;10.48;72.06
53506;BME280;39388;50.936;6.848;2023-01-09T13:02:11;99427.41;;;10.44;72.15
53506;BME280;39388;50.936;6.848;2023-01-09T13:04:48;99422.50;;;10.34;72.13
53506;BME280;39388;50.936;6.848;2023-01-09T13:07:26;99423.44;;;10.30;72.18
53506;BME280;39388;50.936;6.848;2023-01-09T13:10:04;99417.47;;;10.30;71.75
53506;BME280;39388;50.936;6.848;2023-01-09T13:12:38;99438.97;;;10.29;72.12
53506;BME280;39388;50.936;6.848;2023-01-09T13:15:31;99433.75;;;10.30;71.82
53506;BME280;39388;50.936;6.848;2023-01-09T13:18:29;99444.91;;;10.31;71.85
53506;BME280;39388;50.936;6.848;2023-01-09T13:21:00;99436.41;;;10.27;71.88
53506;BME280;39388;50.936;6.848;2023-01-09T13:26:26;99454.44;;;10.27;71.78
53506;BME280;39388;50.936;6.848;2023-01-09T13:29:20;99460.56;;;10.23;71.75
53506;BME280;39388;50.936;6.848;2023-01-09T13:35:01;99466.66;;;10.19;71.98
53506;BME280;39388;50.936;6.848;2023-01-09T13:37:34;99474.44;;;10.17;71.61
53506;BME280;39388;50.936;6.848;2023-01-09T13:43:01;99485.03;;;10.03;71.58
53506;BME280;39388;50.936;6.848;2023-01-09T13:45:34;99472.44;;;9.91;72.18
53506;BME280;39388;50.936;6.848;2023-01-09T13:50:49;99505.84;;;9.94;71.97
53506;BME280;39388;50.936;6.848;2023-01-09T14:09:49;99534.50;;;9.77;72.12
53506;BME280;39388;50.936;6.848;2023-01-09T14:12:22;99551.63;;;9.78;72.28
53506;BME280;39388;50.936;6.848;2023-01-09T14:14:54;99553.31;;;9.80;72.29
53506;BME280;39388;50.936;6.848;2023-01-09T14:17:33;99545.69;;;9.74;72.48
53506;BME280;39388;50.936;6.848;2023-01-09T14:20:07;99559.34;;;9.78;72.53
53506;BME280;39388;50.936;6.848;2023-01-09T14:22:56;99568.84;;;9.76;72.32
53506;BME280;39388;50.936;6.848;2023-01-09T14:25:30;99568.13;;;9.69;72.52
53506;BME280;39388;50.936;6.848;2023-01-09T14:28:02;99583.53;;;9.71;72.63
53506;BME280;39388;50.936;6.848;2023-01-09T14:30:38;99588.72;;;9.68;72.45
53506;BME280;39388;50.936;6.848;2023-01-09T14:33:28;99584.50;;;9.63;72.43
53506;BME280;39388;50.936;6.848;2023-01-09T14:36:18;99589.69;;;9.62;72.25
53506;BME280;39388;50.936;6.848;2023-01-09T14:38:57;99596.53;;;9.63;72.49
53506;BME280;39388;50.936;6.848;2023-01-09T14:41:44;99592.38;;;9.56;72.44
53506;BME280;39388;50.936;6.848;2023-01-09T14:50:05;99615.63;;;9.53;72.44
53506;BME280;39388;50.936;6.848;2023-01-09T14:52:47;99629.28;;;9.56;72.60
53506;BME280;39388;50.936;6.848;2023-01-09T14:55:33;99624.16;;;9.55;72.70
53506;BME280;39388;50.936;6.848;2023-01-09T15:01:06;99639.66;;;9.50;72.81
53506;BME280;39388;50.936;6.848;2023-01-09T15:03:46;99639.75;;;9.47;72.69
53506;BME280;39388;50.936;6.848;2023-01-09T15:06:21;99656.84;;;9.49;72.99
53506;BME280;39388;50.936;6.848;2023-01-09T15:08:55;99653.47;;;9.46;73.17
53506;BME280;39388;50.936;6.848;2023-01-09T15:11:28;99657.75;;;9.45;72.93
53506;BME280;39388;50.936;6.848;2023-01-09T15:13:59;99674.06;;;9.44;72.72
53506;BME280;39388;50.936;6.848;2023-01-09T15:16:31;99687.81;;;9.45;73.14
53506;BME280;39388;50.936;6.848;2023-01-09T15:19:05;99683.59;;;9.39;72.99
53506;BME280;39388;50.936;6.848;2023-01-09T15:21:37;99707.53;;;9.44;72.78
53506;BME280;39388;50.936;6.848;2023-01-09T15:24:28;99707.56;;;9.43;72.89
53506;BME280;39388;50.936;6.848;2023-01-09T15:27:14;99705.91;;;9.40;73.22
53506;BME280;39388;50.936;6.848;2023-01-09T15:29:44;99711.16;;;9.32;73.26
53506;BME280;39388;50.936;6.848;2023-01-09T15:32:16;99730.75;;;9.40;73.14
53506;BME280;39388;50.936;6.848;2023-01-09T15:34:47;99733.38;;;9.37;73.50
53506;BME280;39388;50.936;6.848;2023-01-09T15:37:35;99737.72;;;9.33;73.44
53506;BME280;39388;50.936;6.848;2023-01-09T15:40:07;99743.72;;;9.33;73.63
53506;BME280;39388;50.936;6.848;2023-01-09T15:42:47;99732.69;;;9.27;73.59
53506;BME280;39388;50.936;6.848;2023-01-09T15:45:34;99746.38;;;9.27;73.21
53506;BME280;39388;50.936;6.848;2023-01-09T15:50:57;99755.00;;;9.25;73.43
53506;BME280;39388;50.936;6.848;2023-01-09T15:53:31;99764.47;;;9.21;73.42
53506;BME280;39388;50.936;6.848;2023-01-09T15:56:05;99767.13;;;9.16;73.40
53506;BME280;39388;50.936;6.848;2023-01-09T15:58:39;99769.78;;;9.10;73.44
53506;BME280;39388;50.936;6.848;2023-01-09T16:03:55;99784.34;;;9.10;73.82
53506;BME280;39388;50.936;6.848;2023-01-09T16:06:28;99781.91;;;9.00;73.86
53506;BME280;39388;50.936;6.848;2023-01-09T16:08:59;99786.97;;;9.07;74.10
53506;BME280;39388;50.936;6.848;2023-01-09T16:11:35;99799.81;;;9.07;73.71
53506;BME280;39388;50.936;6.848;2023-01-09T16:14:16;99793.16;;;8.92;74.38
53506;BME280;39388;50.936;6.848;2023-01-09T16:16:49;99816.25;;;8.98;74.42
53506;BME280;39388;50.936;6.848;2023-01-09T16:19:31;99815.41;;;8.94;74.48